createdAt,value
2022-10-06T00:02:20.400Z,68.09
2022-10-06T00:07:21.896Z,68.23
2022-10-06T00:12:23.307Z,68.70
2022-10-06T00:17:24.716Z,68.57
2022-10-06T00:22:26.112Z,68.97
2022-10-06T00:27:34.167Z,68.47
2022-10-06T00:32:35.695Z,68.73
2022-10-06T00:37:38.012Z,69.40
2022-10-06T00:42:52.996Z,69.51
2022-10-06T00:47:59.048Z,69.00
2022-10-06T00:53:00.557Z,68.91
2022-10-06T00:58:02.036Z,67.83
2022-10-06T01:03:06.844Z,67.03
2022-10-06T01:08:08.427Z,66.77
2022-10-06T01:13:12.174Z,66.31
2022-10-06T01:18:17.568Z,67.01
2022-10-06T01:23:19.347Z,67.68
2022-10-06T01:28:21.542Z,67.78
2022-10-06T01:33:23.591Z,67.67
2022-10-06T01:38:26.783Z,67.71
2022-10-06T01:43:34.363Z,67.97
2022-10-06T01:48:36.617Z,68.18
2022-10-06T01:53:38.301Z,68.48
2022-10-06T01:58:39.890Z,68.90
2022-10-06T02:03:42.603Z,68.52
2022-10-06T02:08:44.027Z,68.53
2022-10-06T02:13:46.206Z,69.96
2022-10-06T02:18:48.025Z,70.32
2022-10-06T02:23:50.245Z,69.43
2022-10-06T02:28:51.750Z,69.29
2022-10-06T02:33:57.989Z,69.77
2022-10-06T02:38:59.971Z,69.80
2022-10-06T02:44:02.508Z,70.37
2022-10-06T02:49:05.045Z,69.94
2022-10-06T02:54:06.621Z,70.41
2022-10-06T02:59:09.347Z,70.82
2022-10-06T03:04:12.385Z,69.37
2022-10-06T03:09:15.830Z,69.85
2022-10-06T03:14:21.928Z,70.31
2022-10-06T03:19:25.104Z,70.56
2022-10-06T03:24:27.682Z,70.73
2022-10-06T03:29:32.069Z,70.53
2022-10-06T03:34:33.755Z,70.99
2022-10-06T03:39:38.444Z,71.09
2022-10-06T03:44:40.335Z,70.89
2022-10-06T03:49:42.340Z,71.08
2022-10-06T03:54:44.000Z,70.81
2022-10-06T03:59:45.721Z,70.86
2022-10-06T04:04:47.441Z,70.29
2022-10-06T04:09:48.979Z,70.00
2022-10-06T04:14:54.356Z,70.18
2022-10-06T04:19:58.186Z,70.65
2022-10-06T04:25:00.488Z,70.50
2022-10-06T04:30:02.118Z,70.97
2022-10-06T04:35:05.733Z,70.64
2022-10-06T04:40:08.099Z,70.59
2022-10-06T04:45:10.928Z,70.70
2022-10-06T04:50:14.577Z,71.58
2022-10-06T04:55:34.853Z,71.55
2022-10-06T05:00:38.851Z,71.36
2022-10-06T05:05:42.169Z,71.26
2022-10-06T05:10:44.371Z,71.09
2022-10-06T05:15:55.913Z,71.61
2022-10-06T05:21:20.461Z,71.47
2022-10-06T05:26:24.893Z,71.78
2022-10-06T05:31:33.064Z,71.36
2022-10-06T05:36:38.782Z,71.36
2022-10-06T05:41:41.619Z,71.74
2022-10-06T05:46:46.067Z,72.02
2022-10-06T05:51:47.978Z,72.20
2022-10-06T05:56:54.429Z,72.90
2022-10-06T06:01:57.234Z,72.84
2022-10-06T06:07:12.968Z,72.97
2022-10-06T06:12:17.091Z,72.11
2022-10-06T06:17:31.972Z,70.84
2022-10-06T06:22:36.037Z,72.03
2022-10-06T06:27:39.394Z,73.34
2022-10-06T06:32:41.924Z,73.65
2022-10-06T06:37:43.410Z,74.05
2022-10-06T06:42:45.098Z,73.33
2022-10-06T06:48:06.763Z,73.03
2022-10-06T06:53:11.715Z,73.13
2022-10-06T06:58:19.611Z,72.91
2022-10-06T07:03:45.277Z,73.83
2022-10-06T07:08:46.273Z,71.72
2022-10-06T07:13:52.958Z,69.72
2022-10-06T07:18:54.467Z,68.91
2022-10-06T07:23:56.351Z,68.84
2022-10-06T07:28:58.566Z,68.52
2022-10-06T07:34:00.792Z,66.45
2022-10-06T07:39:03.119Z,65.78
2022-10-06T07:44:07.997Z,65.57
2022-10-06T07:49:10.545Z,65.71
2022-10-06T07:54:12.130Z,64.95
2022-10-06T07:59:32.048Z,65.53
2022-10-06T08:04:33.495Z,65.22
2022-10-06T08:09:34.925Z,66.61
2022-10-06T08:14:36.443Z,67.25
2022-10-06T08:19:38.670Z,66.60
2022-10-06T08:25:04.200Z,65.25
2022-10-06T08:30:02.027Z,63.10
2022-10-06T08:35:05.503Z,63.63
2022-10-06T08:40:07.458Z,64.35
2022-10-06T08:45:22.941Z,63.32
2022-10-06T08:50:28.640Z,61.14
2022-10-06T08:55:50.060Z,60.13
2022-10-06T09:00:52.447Z,59.11
2022-10-06T09:06:04.235Z,57.98
2022-10-06T09:11:29.762Z,56.64
2022-10-06T09:16:36.198Z,57.67
2022-10-06T09:21:44.903Z,58.76
2022-10-06T09:26:50.543Z,57.10
2022-10-06T09:31:52.239Z,55.13
2022-10-06T09:37:02.614Z,56.36
2022-10-06T09:42:31.081Z,54.09
2022-10-06T09:47:37.004Z,53.12
2022-10-06T09:52:39.177Z,53.93
2022-10-06T09:57:52.998Z,52.09
2022-10-06T10:03:14.907Z,50.51
2022-10-06T10:08:22.406Z,49.95
2022-10-06T10:13:25.941Z,48.18
2022-10-06T10:18:31.413Z,47.30
2022-10-06T10:23:34.991Z,44.43
2022-10-06T10:29:14.831Z,41.58
2022-10-06T10:34:33.589Z,39.58
2022-10-06T10:39:44.498Z,39.60
2022-10-06T10:44:57.099Z,40.24
2022-10-06T10:50:16.752Z,40.08
2022-10-06T10:55:26.148Z,40.49
2022-10-06T11:00:29.385Z,39.48
2022-10-06T11:05:57.310Z,40.53
2022-10-06T11:11:02.241Z,40.83
2022-10-06T11:16:25.883Z,41.24
2022-10-06T11:21:47.599Z,43.08
2022-10-06T11:26:55.661Z,44.72
2022-10-06T11:32:09.236Z,43.92
2022-10-06T11:37:32.590Z,45.08
2022-10-06T11:42:42.883Z,47.37
2022-10-06T11:47:57.315Z,46.43
2022-10-06T11:52:59.943Z,47.48
2022-10-06T11:58:23.502Z,45.84
2022-10-06T12:03:30.815Z,45.24
2022-10-06T12:08:37.506Z,45.37
2022-10-06T12:19:28.447Z,44.35
2022-10-06T12:24:45.333Z,43.67
2022-10-06T12:30:01.258Z,44.47
2022-10-06T12:35:12.540Z,44.22
2022-10-06T12:40:38.881Z,45.66
2022-10-06T12:45:55.622Z,45.54
2022-10-06T12:51:13.644Z,44.62
2022-10-06T12:56:30.555Z,44.67
2022-10-06T13:01:36.018Z,46.04
2022-10-06T13:06:39.073Z,45.61
2022-10-06T13:11:40.632Z,45.51
2022-10-06T13:16:45.588Z,45.56
2022-10-06T13:21:47.784Z,44.75
2022-10-06T13:26:49.566Z,46.36
2022-10-06T13:31:53.558Z,46.38
2022-10-06T13:36:56.027Z,45.66
2022-10-06T13:42:04.501Z,45.95
2022-10-06T13:47:17.049Z,46.18
2022-10-06T13:52:36.210Z,46.91
2022-10-06T13:57:49.249Z,47.25
2022-10-06T14:03:10.142Z,45.71
2022-10-06T14:08:13.077Z,44.89
2022-10-06T14:13:25.754Z,44.58
2022-10-06T14:18:57.173Z,42.04
2022-10-06T14:24:24.112Z,39.99
2022-10-06T14:29:27.282Z,41.46
2022-10-06T14:39:59.324Z,43.84
2022-10-06T14:45:01.133Z,46.35
2022-10-06T14:50:03.675Z,46.05
2022-10-06T14:55:06.502Z,46.22
2022-10-06T15:00:10.745Z,45.78
2022-10-06T15:05:13.148Z,46.50
2022-10-06T15:10:14.676Z,46.57
2022-10-06T15:15:16.895Z,45.97
2022-10-06T15:20:23.949Z,46.01
2022-10-06T15:25:30.591Z,45.87
2022-10-06T15:30:32.962Z,42.96
2022-10-06T15:35:35.675Z,39.27
2022-10-06T15:40:37.904Z,37.94
2022-10-06T15:45:40.577Z,38.49
2022-10-06T15:50:42.785Z,39.80
2022-10-06T15:55:45.014Z,42.98
2022-10-06T16:00:47.363Z,46.74
2022-10-06T16:05:51.581Z,49.85
2022-10-06T16:10:54.246Z,51.46
2022-10-06T16:15:58.747Z,52.58
2022-10-06T16:21:01.924Z,55.01
2022-10-06T16:26:04.848Z,56.95
2022-10-06T16:31:06.285Z,57.30
2022-10-06T16:36:09.916Z,58.12
2022-10-06T16:41:12.330Z,59.25
2022-10-06T16:46:33.180Z,60.35
2022-10-06T16:51:40.427Z,61.19
2022-10-06T16:56:44.563Z,62.57
2022-10-06T17:01:48.392Z,62.71
2022-10-06T17:06:54.767Z,64.08
2022-10-06T17:11:58.776Z,64.72
2022-10-06T17:17:00.226Z,64.72
2022-10-06T17:22:01.649Z,64.90
2022-10-06T17:27:06.417Z,65.14
2022-10-06T17:32:07.874Z,65.82
2022-10-06T17:37:09.271Z,66.11
2022-10-06T17:42:10.674Z,66.56
2022-10-06T17:47:12.067Z,66.99
2022-10-06T17:52:13.504Z,67.82
2022-10-06T17:57:15.011Z,68.35
2022-10-06T18:02:16.800Z,68.78
2022-10-06T18:07:18.546Z,69.84
2022-10-06T18:12:19.951Z,69.81
2022-10-06T18:17:21.345Z,69.20
2022-10-06T18:22:22.798Z,69.62
2022-10-06T18:27:24.390Z,70.52
2022-10-06T18:34:58.814Z,70.72
2022-10-06T18:37:47.819Z,71.01
2022-10-06T18:42:49.280Z,70.47
2022-10-06T18:47:50.706Z,70.48
2022-10-06T18:52:52.116Z,71.23
2022-10-06T18:57:53.575Z,71.00
2022-10-06T19:02:54.973Z,71.83
2022-10-06T19:07:56.391Z,71.96
2022-10-06T19:12:57.761Z,72.42
2022-10-06T19:17:59.145Z,72.63
2022-10-06T19:23:00.589Z,71.92
2022-10-06T19:28:02.184Z,71.58
2022-10-06T19:33:05.316Z,71.83
2022-10-06T19:38:06.800Z,72.13
2022-10-06T19:43:08.197Z,71.99
2022-10-06T19:48:10.969Z,71.93
2022-10-06T19:53:12.471Z,72.30
2022-10-06T19:58:13.938Z,71.92
2022-10-06T20:03:15.366Z,71.95
2022-10-06T20:08:17.857Z,72.66
2022-10-06T20:13:19.404Z,72.42
2022-10-06T20:18:21.605Z,72.08
2022-10-06T20:23:24.099Z,72.24
2022-10-06T20:28:25.542Z,72.12
2022-10-06T20:33:27.153Z,72.69
2022-10-06T20:38:28.793Z,72.47
2022-10-06T20:43:30.454Z,72.92
2022-10-06T20:48:36.371Z,72.90
2022-10-06T20:53:39.580Z,73.06
2022-10-06T20:58:42.331Z,72.04
2022-10-06T21:03:49.740Z,71.61
2022-10-06T21:08:52.770Z,72.66
2022-10-06T21:13:54.232Z,73.02
2022-10-06T21:18:55.792Z,73.30
2022-10-06T21:23:57.579Z,72.94
2022-10-06T21:29:01.444Z,73.22
2022-10-06T21:34:03.895Z,73.74
2022-10-06T21:39:06.860Z,73.30
2022-10-06T21:49:31.504Z,74.70
2022-10-06T21:54:33.772Z,75.01
2022-10-06T21:59:35.345Z,74.51
2022-10-06T22:04:36.801Z,74.54
2022-10-06T22:09:38.306Z,74.61
2022-10-06T22:14:40.089Z,73.73
2022-10-06T22:19:41.562Z,74.53
2022-10-06T22:24:43.532Z,73.90
2022-10-06T22:29:44.960Z,73.92
2022-10-06T22:34:46.382Z,74.58
2022-10-06T22:39:47.825Z,74.28
2022-10-06T22:44:49.272Z,74.51
2022-10-06T22:49:50.719Z,73.79
2022-10-06T22:54:52.153Z,73.98
2022-10-06T22:59:53.576Z,74.35
2022-10-06T23:04:55.031Z,74.69
2022-10-06T23:09:56.740Z,74.66
2022-10-06T23:14:58.148Z,74.75
2022-10-06T23:20:00.006Z,75.00
2022-10-06T23:25:01.729Z,75.32
2022-10-06T23:30:05.273Z,75.26
2022-10-06T23:35:12.020Z,75.36
2022-10-06T23:40:15.216Z,75.38
2022-10-06T23:45:17.490Z,76.31
2022-10-06T23:50:19.730Z,75.64
2022-10-06T23:55:21.996Z,75.25
